sensor_id;sensor_type;location;lat;lon;timestamp;P1;durP1;ratioP1;P2;durP2;ratioP2
59300;SDS011;45073;52.740;6.784;2023-07-08T00:00:53;10.07;;;4.15;;
59300;SDS011;45073;52.740;6.784;2023-07-08T00:03:19;9.98;;;4.40;;
59300;SDS011;45073;52.740;6.784;2023-07-08T00:05:46;9.13;;;4.25;;
59300;SDS011;45073;52.740;6.784;2023-07-08T00:08:13;9.30;;;4.50;;
59300;SDS011;45073;52.740;6.784;2023-07-08T00:10:39;8.63;;;4.25;;
59300;SDS011;45073;52.740;6.784;2023-07-08T00:13:05;8.35;;;4.15;;
59300;SDS011;45073;52.740;6.784;2023-07-08T00:15:31;10.00;;;4.85;;
59300;SDS011;45073;52.740;6.784;2023-07-08T00:17:58;10.90;;;4.70;;
59300;SDS011;45073;52.740;6.784;2023-07-08T00:20:31;12.13;;;4.82;;
59300;SDS011;45073;52.740;6.784;2023-07-08T00:23:02;9.10;;;3.97;;
59300;SDS011;45073;52.740;6.784;2023-07-08T00:25:28;9.20;;;4.38;;
59300;SDS011;45073;52.740;6.784;2023-07-08T00:27:54;8.80;;;4.60;;
59300;SDS011;45073;52.740;6.784;2023-07-08T00:30:21;9.32;;;5.00;;
59300;SDS011;45073;52.740;6.784;2023-07-08T00:32:50;8.48;;;4.57;;
59300;SDS011;45073;52.740;6.784;2023-07-08T00:35:39;8.90;;;4.57;;
59300;SDS011;45073;52.740;6.784;2023-07-08T00:38:27;10.88;;;5.68;;
59300;SDS011;45073;52.740;6.784;2023-07-08T00:51:32;9.32;;;4.35;;
59300;SDS011;45073;52.740;6.784;2023-07-08T00:53:59;8.93;;;4.07;;
59300;SDS011;45073;52.740;6.784;2023-07-08T00:56:34;9.70;;;4.35;;
59300;SDS011;45073;52.740;6.784;2023-07-08T00:59:07;10.40;;;4.63;;
59300;SDS011;45073;52.740;6.784;2023-07-08T01:01:37;9.35;;;4.60;;
59300;SDS011;45073;52.740;6.784;2023-07-08T01:04:10;9.75;;;5.00;;
59300;SDS011;45073;52.740;6.784;2023-07-08T01:06:49;10.68;;;4.80;;
59300;SDS011;45073;52.740;6.784;2023-07-08T01:09:22;9.07;;;4.43;;
59300;SDS011;45073;52.740;6.784;2023-07-08T01:11:53;9.55;;;4.88;;
59300;SDS011;45073;52.740;6.784;2023-07-08T01:14:22;10.35;;;5.05;;
59300;SDS011;45073;52.740;6.784;2023-07-08T01:16:51;10.35;;;5.22;;
59300;SDS011;45073;52.740;6.784;2023-07-08T01:19:17;9.20;;;5.00;;
59300;SDS011;45073;52.740;6.784;2023-07-08T01:22:07;8.73;;;4.70;;
59300;SDS011;45073;52.740;6.784;2023-07-08T01:24:33;9.60;;;4.85;;
59300;SDS011;45073;52.740;6.784;2023-07-08T01:27:02;8.75;;;4.43;;
59300;SDS011;45073;52.740;6.784;2023-07-08T01:29:30;10.15;;;5.07;;
59300;SDS011;45073;52.740;6.784;2023-07-08T01:31:56;10.45;;;5.13;;
59300;SDS011;45073;52.740;6.784;2023-07-08T01:34:23;9.07;;;3.30;;
59300;SDS011;45073;52.740;6.784;2023-07-08T01:36:51;10.88;;;4.93;;
59300;SDS011;45073;52.740;6.784;2023-07-08T01:39:19;8.75;;;4.90;;
59300;SDS011;45073;52.740;6.784;2023-07-08T01:41:46;9.60;;;4.70;;
59300;SDS011;45073;52.740;6.784;2023-07-08T01:44:19;10.93;;;5.03;;
59300;SDS011;45073;52.740;6.784;2023-07-08T01:46:55;10.23;;;4.45;;
59300;SDS011;45073;52.740;6.784;2023-07-08T01:49:24;9.20;;;4.80;;
59300;SDS011;45073;52.740;6.784;2023-07-08T01:51:50;9.65;;;4.90;;
59300;SDS011;45073;52.740;6.784;2023-07-08T01:54:16;8.32;;;4.70;;
59300;SDS011;45073;52.740;6.784;2023-07-08T01:56:41;8.52;;;4.55;;
59300;SDS011;45073;52.740;6.784;2023-07-08T01:59:07;9.30;;;4.63;;
59300;SDS011;45073;52.740;6.784;2023-07-08T02:01:32;9.10;;;4.90;;
59300;SDS011;45073;52.740;6.784;2023-07-08T02:03:58;10.77;;;4.80;;
59300;SDS011;45073;52.740;6.784;2023-07-08T02:06:24;10.10;;;4.97;;
59300;SDS011;45073;52.740;6.784;2023-07-08T02:08:49;10.98;;;5.47;;
59300;SDS011;45073;52.740;6.784;2023-07-08T02:11:16;9.10;;;5.03;;
59300;SDS011;45073;52.740;6.784;2023-07-08T02:13:42;9.55;;;5.00;;
59300;SDS011;45073;52.740;6.784;2023-07-08T02:16:08;10.68;;;5.63;;
59300;SDS011;45073;52.740;6.784;2023-07-08T02:18:33;11.18;;;4.82;;
59300;SDS011;45073;52.740;6.784;2023-07-08T02:20:59;11.63;;;5.55;;
59300;SDS011;45073;52.740;6.784;2023-07-08T02:23:25;9.77;;;5.25;;
59300;SDS011;45073;52.740;6.784;2023-07-08T02:25:51;10.07;;;5.15;;
59300;SDS011;45073;52.740;6.784;2023-07-08T02:28:17;11.48;;;5.35;;
59300;SDS011;45073;52.740;6.784;2023-07-08T02:30:43;11.73;;;5.35;;
59300;SDS011;45073;52.740;6.784;2023-07-08T02:33:11;10.10;;;5.18;;
59300;SDS011;45073;52.740;6.784;2023-07-08T02:35:36;9.27;;;5.13;;
59300;SDS011;45073;52.740;6.784;2023-07-08T02:38:02;10.60;;;5.07;;
59300;SDS011;45073;52.740;6.784;2023-07-08T02:40:28;8.60;;;5.00;;
59300;SDS011;45073;52.740;6.784;2023-07-08T02:42:54;9.52;;;4.68;;
59300;SDS011;45073;52.740;6.784;2023-07-08T02:45:20;9.13;;;4.03;;
59300;SDS011;45073;52.740;6.784;2023-07-08T02:47:46;9.60;;;5.07;;
59300;SDS011;45073;52.740;6.784;2023-07-08T02:50:11;10.18;;;5.22;;
59300;SDS011;45073;52.740;6.784;2023-07-08T02:52:38;9.02;;;5.10;;
59300;SDS011;45073;52.740;6.784;2023-07-08T02:55:04;8.82;;;5.05;;
59300;SDS011;45073;52.740;6.784;2023-07-08T02:57:30;11.65;;;5.30;;
59300;SDS011;45073;52.740;6.784;2023-07-08T02:59:56;11.45;;;5.13;;
59300;SDS011;45073;52.740;6.784;2023-07-08T03:02:22;9.50;;;5.53;;
59300;SDS011;45073;52.740;6.784;2023-07-08T03:04:48;10.50;;;5.28;;
59300;SDS011;45073;52.740;6.784;2023-07-08T03:07:15;9.73;;;5.30;;
59300;SDS011;45073;52.740;6.784;2023-07-08T03:09:40;9.68;;;5.50;;
59300;SDS011;45073;52.740;6.784;2023-07-08T03:12:07;10.35;;;4.95;;
59300;SDS011;45073;52.740;6.784;2023-07-08T03:14:34;8.60;;;5.13;;
59300;SDS011;45073;52.740;6.784;2023-07-08T03:17:00;10.57;;;5.18;;
59300;SDS011;45073;52.740;6.784;2023-07-08T03:19:26;8.55;;;3.88;;
59300;SDS011;45073;52.740;6.784;2023-07-08T03:21:51;9.98;;;5.40;;
59300;SDS011;45073;52.740;6.784;2023-07-08T03:24:17;12.50;;;5.55;;
59300;SDS011;45073;52.740;6.784;2023-07-08T03:26:43;10.07;;;5.22;;
59300;SDS011;45073;52.740;6.784;2023-07-08T03:29:17;10.05;;;5.45;;
59300;SDS011;45073;52.740;6.784;2023-07-08T03:31:43;9.85;;;5.30;;
59300;SDS011;45073;52.740;6.784;2023-07-08T03:34:10;10.27;;;5.07;;
59300;SDS011;45073;52.740;6.784;2023-07-08T03:36:42;9.50;;;5.10;;
59300;SDS011;45073;52.740;6.784;2023-07-08T03:39:14;11.88;;;5.18;;
59300;SDS011;45073;52.740;6.784;2023-07-08T03:41:43;11.38;;;4.13;;
59300;SDS011;45073;52.740;6.784;2023-07-08T03:44:09;9.25;;;5.53;;
59300;SDS011;45073;52.740;6.784;2023-07-08T03:46:35;9.77;;;5.60;;
59300;SDS011;45073;52.740;6.784;2023-07-08T03:49:01;10.02;;;5.03;;
59300;SDS011;45073;52.740;6.784;2023-07-08T03:51:27;9.63;;;5.53;;
59300;SDS011;45073;52.740;6.784;2023-07-08T03:53:56;9.77;;;5.00;;
59300;SDS011;45073;52.740;6.784;2023-07-08T03:56:22;13.23;;;5.30;;
59300;SDS011;45073;52.740;6.784;2023-07-08T03:58:48;9.75;;;4.72;;
59300;SDS011;45073;52.740;6.784;2023-07-08T04:01:18;10.55;;;5.43;;
59300;SDS011;45073;52.740;6.784;2023-07-08T04:03:51;8.98;;;5.40;;
59300;SDS011;45073;52.740;6.784;2023-07-08T04:06:17;9.90;;;5.18;;
59300;SDS011;45073;52.740;6.784;2023-07-08T04:08:44;9.60;;;5.43;;
59300;SDS011;45073;52.740;6.784;2023-07-08T04:11:11;8.52;;;3.88;;
59300;SDS011;45073;52.740;6.784;2023-07-08T04:13:38;9.20;;;5.10;;
59300;SDS011;45073;52.740;6.784;2023-07-08T04:16:04;9.43;;;5.10;;
59300;SDS011;45073;52.740;6.784;2023-07-08T04:18:31;11.48;;;5.63;;
59300;SDS011;45073;52.740;6.784;2023-07-08T04:20:57;9.85;;;5.03;;
59300;SDS011;45073;52.740;6.784;2023-07-08T04:23:23;8.63;;;4.00;;
59300;SDS011;45073;52.740;6.784;2023-07-08T04:25:49;10.85;;;5.43;;
59300;SDS011;45073;52.740;6.784;2023-07-08T04:28:17;11.13;;;5.80;;
59300;SDS011;45073;52.740;6.784;2023-07-08T04:30:43;10.60;;;5.65;;
59300;SDS011;45073;52.740;6.784;2023-07-08T04:33:09;9.82;;;5.53;;
59300;SDS011;45073;52.740;6.784;2023-07-08T04:35:37;9.40;;;5.53;;
59300;SDS011;45073;52.740;6.784;2023-07-08T04:38:22;9.27;;;5.13;;
59300;SDS011;45073;52.740;6.784;2023-07-08T04:40:49;9.98;;;5.93;;
59300;SDS011;45073;52.740;6.784;2023-07-08T04:43:16;8.63;;;5.30;;
59300;SDS011;45073;52.740;6.784;2023-07-08T04:45:43;10.52;;;4.32;;
59300;SDS011;45073;52.740;6.784;2023-07-08T04:48:15;10.95;;;5.55;;
59300;SDS011;45073;52.740;6.784;2023-07-08T04:50:44;8.90;;;5.35;;
59300;SDS011;45073;52.740;6.784;2023-07-08T04:53:11;8.82;;;5.15;;
59300;SDS011;45073;52.740;6.784;2023-07-08T04:55:41;8.50;;;4.10;;
59300;SDS011;45073;52.740;6.784;2023-07-08T04:58:09;11.00;;;5.20;;
59300;SDS011;45073;52.740;6.784;2023-07-08T05:00:35;10.27;;;5.22;;
59300;SDS011;45073;52.740;6.784;2023-07-08T05:03:01;9.38;;;5.25;;
59300;SDS011;45073;52.740;6.784;2023-07-08T05:05:27;9.93;;;5.00;;
59300;SDS011;45073;52.740;6.784;2023-07-08T05:07:52;9.60;;;5.03;;
59300;SDS011;45073;52.740;6.784;2023-07-08T05:10:19;9.45;;;5.75;;
59300;SDS011;45073;52.740;6.784;2023-07-08T05:12:44;9.75;;;5.00;;
59300;SDS011;45073;52.740;6.784;2023-07-08T05:15:11;10.57;;;5.05;;
59300;SDS011;45073;52.740;6.784;2023-07-08T05:17:37;9.68;;;4.78;;
59300;SDS011;45073;52.740;6.784;2023-07-08T05:20:07;9.68;;;5.03;;
59300;SDS011;45073;52.740;6.784;2023-07-08T05:22:34;9.98;;;5.25;;
59300;SDS011;45073;52.740;6.784;2023-07-08T05:25:01;10.18;;;5.10;;
59300;SDS011;45073;52.740;6.784;2023-07-08T05:27:27;9.00;;;5.22;;
59300;SDS011;45073;52.740;6.784;2023-07-08T05:29:52;9.95;;;5.47;;
59300;SDS011;45073;52.740;6.784;2023-07-08T05:32:18;10.40;;;4.82;;
59300;SDS011;45073;52.740;6.784;2023-07-08T05:34:44;10.40;;;5.00;;
59300;SDS011;45073;52.740;6.784;2023-07-08T05:37:10;10.05;;;5.53;;
59300;SDS011;45073;52.740;6.784;2023-07-08T05:39:37;9.82;;;5.10;;
59300;SDS011;45073;52.740;6.784;2023-07-08T05:42:02;9.85;;;5.07;;
59300;SDS011;45073;52.740;6.784;2023-07-08T05:44:28;9.30;;;5.15;;
59300;SDS011;45073;52.740;6.784;2023-07-08T05:46:54;10.82;;;5.05;;
59300;SDS011;45073;52.740;6.784;2023-07-08T05:49:19;9.80;;;4.65;;
59300;SDS011;45073;52.740;6.784;2023-07-08T05:51:45;10.45;;;4.90;;
59300;SDS011;45073;52.740;6.784;2023-07-08T05:54:11;9.80;;;5.30;;
59300;SDS011;45073;52.740;6.784;2023-07-08T05:56:37;9.27;;;4.85;;
59300;SDS011;45073;52.740;6.784;2023-07-08T05:59:03;10.02;;;4.68;;
59300;SDS011;45073;52.740;6.784;2023-07-08T06:01:29;8.15;;;4.78;;
59300;SDS011;45073;52.740;6.784;2023-07-08T06:03:55;9.55;;;4.75;;
59300;SDS011;45073;52.740;6.784;2023-07-08T06:06:25;9.57;;;4.72;;
59300;SDS011;45073;52.740;6.784;2023-07-08T06:08:51;11.70;;;5.00;;
59300;SDS011;45073;52.740;6.784;2023-07-08T06:11:17;9.70;;;4.78;;
59300;SDS011;45073;52.740;6.784;2023-07-08T06:13:43;8.18;;;4.20;;
59300;SDS011;45073;52.740;6.784;2023-07-08T06:16:08;8.50;;;4.45;;
59300;SDS011;45073;52.740;6.784;2023-07-08T06:18:34;8.25;;;4.35;;
59300;SDS011;45073;52.740;6.784;2023-07-08T06:21:00;8.82;;;4.45;;
59300;SDS011;45073;52.740;6.784;2023-07-08T06:23:26;8.85;;;4.40;;
59300;SDS011;45073;52.740;6.784;2023-07-08T06:25:52;8.80;;;4.28;;
59300;SDS011;45073;52.740;6.784;2023-07-08T06:28:18;10.20;;;4.10;;
59300;SDS011;45073;52.740;6.784;2023-07-08T06:30:45;8.45;;;4.47;;
59300;SDS011;45073;52.740;6.784;2023-07-08T06:33:11;8.60;;;4.22;;
59300;SDS011;45073;52.740;6.784;2023-07-08T06:35:37;8.27;;;4.05;;
59300;SDS011;45073;52.740;6.784;2023-07-08T06:38:03;9.05;;;3.83;;
59300;SDS011;45073;52.740;6.784;2023-07-08T06:40:29;8.30;;;4.00;;
59300;SDS011;45073;52.740;6.784;2023-07-08T06:42:55;11.07;;;3.90;;
59300;SDS011;45073;52.740;6.784;2023-07-08T06:45:21;8.15;;;3.80;;
59300;SDS011;45073;52.740;6.784;2023-07-08T06:47:47;8.88;;;3.83;;
59300;SDS011;45073;52.740;6.784;2023-07-08T06:50:12;10.43;;;4.80;;
59300;SDS011;45073;52.740;6.784;2023-07-08T06:52:38;8.25;;;3.75;;
59300;SDS011;45073;52.740;6.784;2023-07-08T06:55:05;9.45;;;4.20;;
59300;SDS011;45073;52.740;6.784;2023-07-08T06:57:32;9.65;;;4.30;;
59300;SDS011;45073;52.740;6.784;2023-07-08T06:59:58;8.07;;;4.10;;
59300;SDS011;45073;52.740;6.784;2023-07-08T07:02:25;7.88;;;3.75;;
59300;SDS011;45073;52.740;6.784;2023-07-08T07:04:51;9.40;;;3.80;;
59300;SDS011;45073;52.740;6.784;2023-07-08T07:07:16;10.02;;;4.00;;
59300;SDS011;45073;52.740;6.784;2023-07-08T07:09:42;10.00;;;4.15;;
59300;SDS011;45073;52.740;6.784;2023-07-08T07:12:07;9.30;;;3.65;;
59300;SDS011;45073;52.740;6.784;2023-07-08T07:14:33;8.52;;;3.88;;
59300;SDS011;45073;52.740;6.784;2023-07-08T07:16:59;8.00;;;4.20;;
59300;SDS011;45073;52.740;6.784;2023-07-08T07:19:25;9.10;;;4.00;;
59300;SDS011;45073;52.740;6.784;2023-07-08T07:21:51;8.93;;;4.20;;
59300;SDS011;45073;52.740;6.784;2023-07-08T07:24:17;9.98;;;4.03;;
59300;SDS011;45073;52.740;6.784;2023-07-08T07:26:43;8.75;;;3.70;;
59300;SDS011;45073;52.740;6.784;2023-07-08T07:29:08;8.90;;;3.30;;
59300;SDS011;45073;52.740;6.784;2023-07-08T07:31:34;12.52;;;3.92;;
59300;SDS011;45073;52.740;6.784;2023-07-08T07:34:00;20.48;;;4.90;;
59300;SDS011;45073;52.740;6.784;2023-07-08T07:36:26;15.77;;;4.68;;
59300;SDS011;45073;52.740;6.784;2023-07-08T07:38:53;10.68;;;4.15;;
59300;SDS011;45073;52.740;6.784;2023-07-08T07:41:19;7.40;;;3.47;;
59300;SDS011;45073;52.740;6.784;2023-07-08T07:43:45;8.80;;;3.63;;
59300;SDS011;45073;52.740;6.784;2023-07-08T07:46:11;40.42;;;16.20;;
59300;SDS011;45073;52.740;6.784;2023-07-08T07:48:38;31.00;;;16.90;;
59300;SDS011;45073;52.740;6.784;2023-07-08T07:51:04;40.75;;;16.17;;
59300;SDS011;45073;52.740;6.784;2023-07-08T07:53:31;19.10;;;9.05;;
59300;SDS011;45073;52.740;6.784;2023-07-08T07:55:57;35.10;;;20.70;;
59300;SDS011;45073;52.740;6.784;2023-07-08T07:58:23;16.50;;;8.25;;
59300;SDS011;45073;52.740;6.784;2023-07-08T08:00:49;12.70;;;5.35;;
59300;SDS011;45073;52.740;6.784;2023-07-08T08:03:15;10.05;;;4.32;;
59300;SDS011;45073;52.740;6.784;2023-07-08T08:05:41;10.73;;;4.20;;
59300;SDS011;45073;52.740;6.784;2023-07-08T08:08:07;8.48;;;4.05;;
59300;SDS011;45073;52.740;6.784;2023-07-08T08:10:34;10.52;;;3.80;;
59300;SDS011;45073;52.740;6.784;2023-07-08T08:13:00;9.07;;;3.72;;
59300;SDS011;45073;52.740;6.784;2023-07-08T08:15:27;10.18;;;3.80;;
59300;SDS011;45073;52.740;6.784;2023-07-08T08:17:53;9.77;;;4.20;;
59300;SDS011;45073;52.740;6.784;2023-07-08T08:20:19;9.50;;;3.63;;
59300;SDS011;45073;52.740;6.784;2023-07-08T08:22:46;9.10;;;3.53;;
59300;SDS011;45073;52.740;6.784;2023-07-08T08:25:12;8.77;;;3.85;;
59300;SDS011;45073;52.740;6.784;2023-07-08T08:27:38;8.18;;;4.03;;
59300;SDS011;45073;52.740;6.784;2023-07-08T08:30:04;9.43;;;3.90;;
59300;SDS011;45073;52.740;6.784;2023-07-08T08:32:31;10.95;;;3.65;;
59300;SDS011;45073;52.740;6.784;2023-07-08T08:34:56;8.52;;;3.42;;
59300;SDS011;45073;52.740;6.784;2023-07-08T08:37:22;9.40;;;3.90;;
59300;SDS011;45073;52.740;6.784;2023-07-08T08:39:48;9.57;;;3.47;;
59300;SDS011;45073;52.740;6.784;2023-07-08T08:42:22;8.88;;;3.40;;
59300;SDS011;45073;52.740;6.784;2023-07-08T08:45:00;8.15;;;3.78;;
59300;SDS011;45073;52.740;6.784;2023-07-08T08:53:01;9.25;;;3.58;;
59300;SDS011;45073;52.740;6.784;2023-07-08T08:55:29;8.73;;;3.65;;
59300;SDS011;45073;52.740;6.784;2023-07-08T09:00:33;9.38;;;3.88;;
59300;SDS011;45073;52.740;6.784;2023-07-08T09:04:06;9.18;;;4.00;;
59300;SDS011;45073;52.740;6.784;2023-07-08T09:06:27;7.65;;;3.78;;
59300;SDS011;45073;52.740;6.784;2023-07-08T09:09:02;9.15;;;3.97;;
59300;SDS011;45073;52.740;6.784;2023-07-08T09:14:29;8.88;;;3.88;;
59300;SDS011;45073;52.740;6.784;2023-07-08T09:17:07;8.50;;;4.10;;
59300;SDS011;45073;52.740;6.784;2023-07-08T09:25:15;9.15;;;4.00;;
59300;SDS011;45073;52.740;6.784;2023-07-08T09:27:54;7.78;;;3.42;;
59300;SDS011;45073;52.740;6.784;2023-07-08T09:30:21;11.52;;;3.97;;
59300;SDS011;45073;52.740;6.784;2023-07-08T09:32:48;9.95;;;4.07;;
59300;SDS011;45073;52.740;6.784;2023-07-08T09:35:19;11.27;;;4.38;;
59300;SDS011;45073;52.740;6.784;2023-07-08T09:37:49;8.00;;;3.22;;
59300;SDS011;45073;52.740;6.784;2023-07-08T09:42:41;8.93;;;3.63;;
59300;SDS011;45073;52.740;6.784;2023-07-08T09:45:12;10.45;;;4.07;;
59300;SDS011;45073;52.740;6.784;2023-07-08T09:52:43;8.63;;;3.88;;
59300;SDS011;45073;52.740;6.784;2023-07-08T09:55:12;8.75;;;4.05;;
59300;SDS011;45073;52.740;6.784;2023-07-08T09:57:38;10.50;;;3.83;;
59300;SDS011;45073;52.740;6.784;2023-07-08T10:00:08;8.32;;;3.80;;
59300;SDS011;45073;52.740;6.784;2023-07-08T10:02:56;7.70;;;3.58;;
59300;SDS011;45073;52.740;6.784;2023-07-08T10:05:25;8.35;;;3.63;;
59300;SDS011;45073;52.740;6.784;2023-07-08T10:08:03;9.73;;;4.10;;
59300;SDS011;45073;52.740;6.784;2023-07-08T10:10:39;8.25;;;3.78;;
59300;SDS011;45073;52.740;6.784;2023-07-08T10:18:40;8.75;;;3.80;;
59300;SDS011;45073;52.740;6.784;2023-07-08T10:24:09;8.55;;;3.78;;
59300;SDS011;45073;52.740;6.784;2023-07-08T10:26:44;9.30;;;3.50;;
59300;SDS011;45073;52.740;6.784;2023-07-08T10:34:36;9.00;;;3.85;;
59300;SDS011;45073;52.740;6.784;2023-07-08T10:42:43;8.43;;;3.90;;
59300;SDS011;45073;52.740;6.784;2023-07-08T10:45:26;8.30;;;3.67;;
59300;SDS011;45073;52.740;6.784;2023-07-08T10:53:58;9.88;;;3.42;;
59300;SDS011;45073;52.740;6.784;2023-07-08T10:59:41;8.85;;;3.85;;
59300;SDS011;45073;52.740;6.784;2023-07-08T11:07:19;7.70;;;3.80;;
59300;SDS011;45073;52.740;6.784;2023-07-08T11:12:47;8.55;;;3.58;;
59300;SDS011;45073;52.740;6.784;2023-07-08T11:15:18;8.88;;;4.25;;
59300;SDS011;45073;52.740;6.784;2023-07-08T11:20:40;8.43;;;4.07;;
59300;SDS011;45073;52.740;6.784;2023-07-08T11:25:54;7.47;;;3.70;;
59300;SDS011;45073;52.740;6.784;2023-07-08T11:29:01;8.13;;;3.88;;
59300;SDS011;45073;52.740;6.784;2023-07-08T11:31:29;7.43;;;4.00;;
59300;SDS011;45073;52.740;6.784;2023-07-08T11:33:57;9.20;;;4.03;;
59300;SDS011;45073;52.740;6.784;2023-07-08T11:36:24;7.75;;;3.97;;
59300;SDS011;45073;52.740;6.784;2023-07-08T11:38:55;9.63;;;4.30;;
59300;SDS011;45073;52.740;6.784;2023-07-08T11:41:23;9.07;;;4.18;;
59300;SDS011;45073;52.740;6.784;2023-07-08T11:43:56;8.98;;;4.13;;
59300;SDS011;45073;52.740;6.784;2023-07-08T11:46:27;8.73;;;4.10;;
59300;SDS011;45073;52.740;6.784;2023-07-08T11:48:57;8.75;;;4.20;;
59300;SDS011;45073;52.740;6.784;2023-07-08T11:51:27;7.82;;;4.25;;
59300;SDS011;45073;52.740;6.784;2023-07-08T11:53:59;8.43;;;4.88;;
59300;SDS011;45073;52.740;6.784;2023-07-08T11:56:28;8.63;;;4.50;;
59300;SDS011;45073;52.740;6.784;2023-07-08T11:59:22;8.90;;;4.53;;
59300;SDS011;45073;52.740;6.784;2023-07-08T12:04:17;8.25;;;4.35;;
59300;SDS011;45073;52.740;6.784;2023-07-08T12:07:10;7.95;;;4.28;;
59300;SDS011;45073;52.740;6.784;2023-07-08T12:10:04;10.73;;;5.00;;
59300;SDS011;45073;52.740;6.784;2023-07-08T12:12:36;8.70;;;4.07;;
59300;SDS011;45073;52.740;6.784;2023-07-08T12:15:09;9.02;;;4.43;;
59300;SDS011;45073;52.740;6.784;2023-07-08T12:17:44;8.43;;;4.07;;
59300;SDS011;45073;52.740;6.784;2023-07-08T12:23:00;11.52;;;5.00;;
59300;SDS011;45073;52.740;6.784;2023-07-08T12:25:28;9.30;;;5.13;;
59300;SDS011;45073;52.740;6.784;2023-07-08T12:27:57;9.93;;;5.20;;
59300;SDS011;45073;52.740;6.784;2023-07-08T12:30:22;9.48;;;5.20;;
59300;SDS011;45073;52.740;6.784;2023-07-08T12:32:50;9.23;;;4.63;;
59300;SDS011;45073;52.740;6.784;2023-07-08T12:37:52;8.57;;;5.05;;
59300;SDS011;45073;52.740;6.784;2023-07-08T12:40:21;8.10;;;5.00;;
59300;SDS011;45073;52.740;6.784;2023-07-08T12:42:47;9.20;;;5.18;;
59300;SDS011;45073;52.740;6.784;2023-07-08T12:45:15;8.80;;;4.85;;
59300;SDS011;45073;52.740;6.784;2023-07-08T12:47:43;10.85;;;5.32;;
59300;SDS011;45073;52.740;6.784;2023-07-08T12:50:09;8.98;;;5.43;;
59300;SDS011;45073;52.740;6.784;2023-07-08T12:52:35;8.43;;;5.13;;
59300;SDS011;45073;52.740;6.784;2023-07-08T12:55:01;8.65;;;5.00;;
59300;SDS011;45073;52.740;6.784;2023-07-08T12:57:27;9.88;;;5.18;;
59300;SDS011;45073;52.740;6.784;2023-07-08T12:59:52;9.70;;;5.43;;
59300;SDS011;45073;52.740;6.784;2023-07-08T13:02:19;10.13;;;5.47;;
59300;SDS011;45073;52.740;6.784;2023-07-08T13:04:49;9.35;;;5.82;;
59300;SDS011;45073;52.740;6.784;2023-07-08T13:07:32;10.02;;;5.53;;
59300;SDS011;45073;52.740;6.784;2023-07-08T13:10:05;9.32;;;5.68;;
59300;SDS011;45073;52.740;6.784;2023-07-08T13:12:32;10.02;;;5.80;;
59300;SDS011;45073;52.740;6.784;2023-07-08T13:15:03;9.05;;;5.30;;
59300;SDS011;45073;52.740;6.784;2023-07-08T13:17:36;9.73;;;5.53;;
59300;SDS011;45073;52.740;6.784;2023-07-08T13:20:03;10.25;;;5.60;;
59300;SDS011;45073;52.740;6.784;2023-07-08T13:22:29;10.48;;;5.78;;
59300;SDS011;45073;52.740;6.784;2023-07-08T13:25:00;9.32;;;5.32;;
59300;SDS011;45073;52.740;6.784;2023-07-08T13:27:27;10.18;;;5.50;;
59300;SDS011;45073;52.740;6.784;2023-07-08T13:29:53;9.63;;;5.75;;
59300;SDS011;45073;52.740;6.784;2023-07-08T13:32:20;9.52;;;5.60;;
59300;SDS011;45073;52.740;6.784;2023-07-08T13:34:55;9.02;;;5.50;;
59300;SDS011;45073;52.740;6.784;2023-07-08T13:37:21;9.52;;;5.70;;
59300;SDS011;45073;52.740;6.784;2023-07-08T13:39:51;9.00;;;5.57;;
59300;SDS011;45073;52.740;6.784;2023-07-08T13:42:18;9.73;;;5.50;;
59300;SDS011;45073;52.740;6.784;2023-07-08T13:44:44;9.90;;;5.90;;
59300;SDS011;45073;52.740;6.784;2023-07-08T13:47:22;9.00;;;5.35;;
59300;SDS011;45073;52.740;6.784;2023-07-08T13:49:54;9.68;;;5.82;;
59300;SDS011;45073;52.740;6.784;2023-07-08T13:52:24;10.70;;;5.82;;
59300;SDS011;45073;52.740;6.784;2023-07-08T13:54:52;9.75;;;5.45;;
59300;SDS011;45073;52.740;6.784;2023-07-08T13:57:21;9.93;;;5.47;;
59300;SDS011;45073;52.740;6.784;2023-07-08T13:59:53;8.95;;;5.55;;
59300;SDS011;45073;52.740;6.784;2023-07-08T14:02:21;9.02;;;5.63;;
59300;SDS011;45073;52.740;6.784;2023-07-08T14:04:49;10.90;;;5.65;;
59300;SDS011;45073;52.740;6.784;2023-07-08T14:07:16;9.40;;;5.78;;
59300;SDS011;45073;52.740;6.784;2023-07-08T14:09:44;11.18;;;5.40;;
59300;SDS011;45073;52.740;6.784;2023-07-08T14:12:10;7.90;;;5.13;;
59300;SDS011;45073;52.740;6.784;2023-07-08T14:14:36;9.98;;;6.00;;
59300;SDS011;45073;52.740;6.784;2023-07-08T14:17:01;10.25;;;6.05;;
59300;SDS011;45073;52.740;6.784;2023-07-08T14:19:28;9.63;;;5.90;;
59300;SDS011;45073;52.740;6.784;2023-07-08T14:22:01;9.95;;;5.70;;
59300;SDS011;45073;52.740;6.784;2023-07-08T14:24:47;10.15;;;5.93;;
59300;SDS011;45073;52.740;6.784;2023-07-08T14:27:13;9.57;;;6.35;;
59300;SDS011;45073;52.740;6.784;2023-07-08T14:29:42;11.02;;;5.88;;
59300;SDS011;45073;52.740;6.784;2023-07-08T14:32:22;9.25;;;5.47;;
59300;SDS011;45073;52.740;6.784;2023-07-08T14:34:55;9.70;;;5.90;;
59300;SDS011;45073;52.740;6.784;2023-07-08T14:37:24;10.07;;;6.10;;
59300;SDS011;45073;52.740;6.784;2023-07-08T14:39:50;10.63;;;5.85;;
59300;SDS011;45073;52.740;6.784;2023-07-08T14:42:17;10.23;;;5.72;;
59300;SDS011;45073;52.740;6.784;2023-07-08T14:44:45;9.15;;;5.70;;
59300;SDS011;45073;52.740;6.784;2023-07-08T14:47:14;10.18;;;5.90;;
59300;SDS011;45073;52.740;6.784;2023-07-08T14:49:42;10.57;;;6.43;;
59300;SDS011;45073;52.740;6.784;2023-07-08T14:52:07;9.88;;;5.85;;
59300;SDS011;45073;52.740;6.784;2023-07-08T14:54:33;9.90;;;6.10;;
59300;SDS011;45073;52.740;6.784;2023-07-08T14:56:59;9.65;;;6.03;;
59300;SDS011;45073;52.740;6.784;2023-07-08T14:59:27;11.45;;;5.82;;
59300;SDS011;45073;52.740;6.784;2023-07-08T15:01:56;10.68;;;6.07;;
59300;SDS011;45073;52.740;6.784;2023-07-08T15:04:24;9.90;;;5.78;;
59300;SDS011;45073;52.740;6.784;2023-07-08T15:06:49;12.02;;;6.47;;
59300;SDS011;45073;52.740;6.784;2023-07-08T15:09:17;10.35;;;6.00;;
59300;SDS011;45073;52.740;6.784;2023-07-08T15:11:43;11.20;;;5.68;;
59300;SDS011;45073;52.740;6.784;2023-07-08T15:16:46;10.80;;;6.10;;
59300;SDS011;45073;52.740;6.784;2023-07-08T15:19:12;13.18;;;6.30;;
59300;SDS011;45073;52.740;6.784;2023-07-08T15:21:38;10.10;;;6.03;;
59300;SDS011;45073;52.740;6.784;2023-07-08T15:24:08;10.15;;;5.88;;
59300;SDS011;45073;52.740;6.784;2023-07-08T15:29:02;9.55;;;5.68;;
59300;SDS011;45073;52.740;6.784;2023-07-08T15:31:28;10.88;;;6.40;;
59300;SDS011;45073;52.740;6.784;2023-07-08T15:33:57;11.07;;;6.78;;
59300;SDS011;45073;52.740;6.784;2023-07-08T15:36:23;9.57;;;6.20;;
59300;SDS011;45073;52.740;6.784;2023-07-08T15:38:48;10.10;;;6.15;;
59300;SDS011;45073;52.740;6.784;2023-07-08T15:43:48;10.55;;;6.10;;
59300;SDS011;45073;52.740;6.784;2023-07-08T15:46:14;10.93;;;6.45;;
59300;SDS011;45073;52.740;6.784;2023-07-08T15:48:41;11.85;;;6.90;;
59300;SDS011;45073;52.740;6.784;2023-07-08T15:51:07;10.80;;;6.07;;
59300;SDS011;45073;52.740;6.784;2023-07-08T15:53:38;9.38;;;6.07;;
59300;SDS011;45073;52.740;6.784;2023-07-08T15:56:03;10.50;;;5.85;;
59300;SDS011;45073;52.740;6.784;2023-07-08T15:58:30;11.25;;;6.70;;
59300;SDS011;45073;52.740;6.784;2023-07-08T16:00:58;12.02;;;6.40;;
59300;SDS011;45073;52.740;6.784;2023-07-08T16:03:26;11.43;;;6.15;;
59300;SDS011;45073;52.740;6.784;2023-07-08T16:05:55;11.55;;;6.00;;
59300;SDS011;45073;52.740;6.784;2023-07-08T16:08:21;10.85;;;6.15;;
59300;SDS011;45073;52.740;6.784;2023-07-08T16:10:49;10.57;;;6.00;;
59300;SDS011;45073;52.740;6.784;2023-07-08T16:13:22;14.20;;;5.70;;
59300;SDS011;45073;52.740;6.784;2023-07-08T16:15:51;12.30;;;5.95;;
59300;SDS011;45073;52.740;6.784;2023-07-08T16:18:17;9.25;;;5.63;;
59300;SDS011;45073;52.740;6.784;2023-07-08T16:20:43;11.23;;;6.30;;
59300;SDS011;45073;52.740;6.784;2023-07-08T16:23:08;10.43;;;5.80;;